Time;durP1;ratioP1;P1;durP2;ratioP2;P2;SDS_P1;SDS_P2;PMS_P1;PMS_P2;Temp;Humidity;BMP_temperature;BMP_pressure;BME280_temperature;BME280_humidity;BME280_pressure;Samples;Min_cycle;Max_cycle;Signal;HPM_P1;HPM_P2
2022/05/06 04:13:05;;;;;;;15.40;12.73;;;;;;;12.72;97.98;100870.09;5557303;32;211905;-89
2022/05/06 04:16:09;;;;;;;22.92;12.65;;;;;;;12.72;97.72;100876.25;5543411;32;32745;-92
2022/05/06 04:19:13;;;;;;;14.10;12.65;;;;;;;12.79;97.16;100884.81;5545210;32;33837;-93
2022/05/06 04:25:44;;;;;;;14.38;11.80;;;;;;;13.01;95.46;100892.56;5543201;32;32334;-88
2022/05/06 04:28:48;;;;;;;12.90;11.60;;;;;;;13.12;94.05;100894.66;5543887;32;33335;-87
2022/05/06 04:31:50;;;;;;;13.15;11.52;;;;;;;13.24;93.54;100897.63;5546112;32;34013;-90
2022/05/06 04:34:54;;;;;;;12.98;11.50;;;;;;;13.36;92.62;100898.78;5544550;32;34514;-90
2022/05/06 04:37:57;;;;;;;13.93;11.73;;;;;;;13.51;91.03;100905.97;5547400;32;34166;-87
2022/05/06 04:41:02;;;;;;;12.35;11.05;;;;;;;13.63;89.61;100903.59;5547201;32;32617;-87
2022/05/06 04:44:05;;;;;;;12.77;10.85;;;;;;;13.87;88.61;100904.06;5544164;32;33410;-88
2022/05/06 04:47:09;;;;;;;13.77;10.60;;;;;;;14.06;87.16;100911.03;5586493;26;34048;-88
2022/05/06 04:50:12;;;;;;;20.17;10.48;;;;;;;14.18;86.27;100910.34;5567213;32;33197;-87
2022/05/06 04:53:15;;;;;;;17.70;10.43;;;;;;;14.37;85.75;100907.50;5581494;31;33123;-86
2022/05/06 04:56:18;;;;;;;13.50;10.00;;;;;;;14.69;83.89;100914.59;5582878;32;33566;-86
2022/05/06 04:59:22;;;;;;;11.23;10.00;;;;;;;14.78;83.21;100911.41;5582490;32;34027;-88
2022/05/06 05:02:27;;;;;;;13.85;9.40;;;;;;;15.14;81.82;100921.81;5563372;32;32595;-88
2022/05/06 05:05:31;;;;;;;11.25;9.45;;;;;;;15.33;80.42;100914.38;5562864;32;33505;-87
2022/05/06 05:08:40;;;;;;;11.52;10.35;;;;;;;15.45;80.75;100922.59;5584669;32;33004;-88
2022/05/06 05:11:43;;;;;;;15.18;9.45;;;;;;;15.44;79.79;100912.88;5574723;32;32520;-88
2022/05/06 05:14:47;;;;;;;11.65;9.70;;;;;;;15.61;80.34;100920.69;5552062;32;32915;-88
2022/05/06 05:17:50;;;;;;;10.82;9.63;;;;;;;15.77;79.50;100931.28;5565268;31;33897;-88
2022/05/06 05:20:53;;;;;;;12.65;9.85;;;;;;;15.62;79.39;100927.75;5558324;32;33716;-88
2022/05/06 05:23:56;;;;;;;11.57;8.63;;;;;;;15.94;77.44;100925.88;5532139;32;33285;-87
2022/05/06 05:26:59;;;;;;;11.07;9.10;;;;;;;16.02;76.78;100934.25;5560606;32;32871;-88
2022/05/06 05:30:06;;;;;;;13.73;10.48;;;;;;;16.09;76.81;100927.53;5549391;32;33123;-87
2022/05/06 05:33:09;;;;;;;13.48;9.23;;;;;;;16.17;76.55;100927.06;5566675;32;33075;-87
2022/05/06 05:36:13;;;;;;;12.37;8.73;;;;;;;16.30;75.12;100929.81;5558736;32;32701;-87
2022/05/06 05:39:16;;;;;;;10.15;9.10;;;;;;;16.52;73.40;100921.22;5550591;32;34157;-88
2022/05/06 05:42:24;;;;;;;14.18;9.80;;;;;;;16.54;72.50;100921.97;5550980;32;35132;-88
2022/05/06 05:48:51;;;;;;;10.43;8.07;;;;;;;16.50;73.05;100933.81;5550168;32;33840;-91
2022/05/06 05:51:55;;;;;;;12.35;9.27;;;;;;;16.66;73.12;100931.00;5562527;32;32910;-91
2022/05/06 05:54:59;;;;;;;12.88;8.88;;;;;;;16.64;72.63;100926.72;5557675;32;33149;-91
2022/05/06 05:58:02;;;;;;;12.20;9.82;;;;;;;16.55;73.39;100929.03;5552655;32;33160;-87
2022/05/06 06:01:09;;;;;;;11.07;9.40;;;;;;;16.30;74.44;100932.47;5545808;32;33315;-88
2022/05/06 06:04:12;;;;;;;10.57;9.48;;;;;;;16.44;73.56;100932.41;5561302;32;35292;-88
2022/05/06 06:07:17;;;;;;;15.32;10.18;;;;;;;16.26;74.17;100938.97;5566656;32;33717;-89
2022/05/06 06:10:21;;;;;;;12.55;10.35;;;;;;;16.19;74.87;100938.50;5551664;32;33340;-88
2022/05/06 06:13:31;;;;;;;12.02;9.90;;;;;;;16.06;75.04;100943.81;5532858;32;34035;-88
2022/05/06 06:16:34;;;;;;;10.65;9.23;;;;;;;16.19;74.16;100943.03;5556844;32;33175;-89
2022/05/06 06:19:37;;;;;;;12.23;9.73;;;;;;;16.16;75.01;100938.72;5536566;32;34246;-89
2022/05/06 06:22:40;;;;;;;10.20;9.10;;;;;;;16.07;75.24;100945.53;5539784;32;34059;-91
2022/05/06 06:25:43;;;;;;;14.40;10.13;;;;;;;16.06;74.61;100940.25;5541207;32;33737;-89
2022/05/06 06:29:00;;;;;;;10.80;9.40;;;;;;;15.83;76.48;100945.22;5616863;26;33882;-89
2022/05/06 06:32:06;;;;;;;16.98;9.60;;;;;;;15.97;76.22;100945.25;5588796;31;33609;-90
2022/05/06 06:46:16;;;;;;;11.75;9.77;;;;;;;16.26;74.93;100950.56;5490194;32;33557;-89
2022/05/06 06:49:21;;;;;;;12.57;9.73;;;;;;;16.28;74.73;100953.97;5492800;32;34407;-90
2022/05/06 06:55:55;;;;;;;11.00;9.10;;;;;;;16.26;75.51;100952.37;5510912;32;33303;-88
2022/05/06 06:58:59;;;;;;;12.88;9.27;;;;;;;16.45;74.64;100949.37;5521221;32;34876;-85
2022/05/06 07:02:02;;;;;;;10.10;9.07;;;;;;;16.44;74.36;100947.62;5519884;32;33919;-84
2022/05/06 07:05:05;;;;;;;17.37;9.85;;;;;;;16.37;74.95;100948.97;5515041;32;33989;-85
2022/05/06 07:11:54;;;;;;;12.18;9.43;;;;;;;17.07;72.12;100952.44;5514832;32;33857;-84
2022/05/06 07:14:57;;;;;;;13.60;8.25;;;;;;;17.06;71.94;100950.75;5515695;32;34874;-87
2022/05/06 07:18:00;;;;;;;9.93;8.93;;;;;;;17.00;73.17;100940.41;5503791;32;33955;-87
2022/05/06 07:21:03;;;;;;;9.73;8.55;;;;;;;16.89;72.97;100947.34;5496895;32;33183;-88
2022/05/06 07:24:06;;;;;;;13.13;9.20;;;;;;;17.23;71.79;100949.56;5507139;32;34185;-87
2022/05/06 07:27:09;;;;;;;11.05;9.10;;;;;;;17.58;70.39;100940.91;5510249;32;33781;-85
2022/05/06 07:30:12;;;;;;;11.07;8.38;;;;;;;17.95;69.47;100939.25;5501111;32;32427;-85
2022/05/06 07:33:14;;;;;;;10.88;9.25;;;;;;;18.24;68.16;100937.16;5502392;32;34034;-86
2022/05/06 07:36:17;;;;;;;12.50;8.85;;;;;;;18.18;68.36;100949.22;5514122;32;33667;-85
2022/05/06 07:39:20;;;;;;;10.65;8.30;;;;;;;18.34;67.64;100941.84;5511966;32;34162;-85
2022/05/06 07:42:23;;;;;;;10.40;8.38;;;;;;;18.55;66.38;100940.25;5514039;32;34080;-89
2022/05/06 07:45:25;;;;;;;10.15;8.23;;;;;;;18.67;67.06;100949.22;5515197;32;33902;-88
2022/05/06 07:48:29;;;;;;;10.88;8.80;;;;;;;18.79;65.81;100950.13;5514745;32;34021;-89
2022/05/06 07:51:39;;;;;;;13.75;9.45;;;;;;;19.02;64.92;100952.03;5512704;32;32867;-85
2022/05/06 07:54:41;;;;;;;10.80;8.55;;;;;;;18.57;66.17;100951.72;5508537;32;32388;-85
2022/05/06 07:57:44;;;;;;;10.02;8.90;;;;;;;18.63;67.04;100950.44;5509988;32;34358;-85
2022/05/06 08:00:47;;;;;;;10.60;8.50;;;;;;;18.95;65.62;100946.25;5507279;32;33083;-86
2022/05/06 08:07:18;;;;;;;11.27;9.65;;;;;;;19.46;63.46;100946.91;5513610;32;34199;-84
2022/05/06 08:10:24;;;;;;;12.30;9.00;;;;;;;19.77;61.66;100939.09;5494376;32;33327;-84
2022/05/06 08:13:26;;;;;;;12.63;9.30;;;;;;;19.95;62.29;100946.69;5493471;32;34516;-84
2022/05/06 08:16:29;;;;;;;9.50;8.60;;;;;;;20.07;60.42;100940.31;5479223;32;32165;-84
2022/05/06 08:19:33;;;;;;;12.37;8.52;;;;;;;20.25;59.83;100943.34;5508648;32;33874;-83
2022/05/06 08:22:36;;;;;;;10.02;8.52;;;;;;;20.13;60.54;100941.66;5508894;32;32407;-87
2022/05/06 08:25:39;;;;;;;9.82;8.82;;;;;;;20.46;59.18;100943.41;5508982;32;33913;-88
2022/05/06 08:28:43;;;;;;;13.15;9.35;;;;;;;20.73;58.68;100944.78;5509530;32;34758;-87
2022/05/06 08:31:46;;;;;;;9.95;8.73;;;;;;;20.63;58.62;100946.53;5510230;32;32622;-87
2022/05/06 08:34:49;;;;;;;12.60;8.65;;;;;;;20.91;59.28;100936.16;5501041;32;32815;-87
2022/05/06 08:37:52;;;;;;;10.60;9.50;;;;;;;21.10;57.87;100935.44;5508570;32;32395;-87
2022/05/06 08:40:56;;;;;;;10.73;8.60;;;;;;;20.76;58.25;100938.25;5508637;32;33905;-88
2022/05/06 08:50:50;;;;;;;12.35;8.60;;;;;;;21.27;57.35;100942.06;5504083;32;34336;-88
2022/05/06 08:50:57;;;;;;;9.48;8.57;;;;;;;21.75;55.32;100938.91;5507197;32;34541;-88
2022/05/06 08:54:01;;;;;;;10.85;9.35;;;;;;;21.27;56.82;100950.16;5508162;32;34581;-87
2022/05/06 08:57:04;;;;;;;11.57;8.90;;;;;;;21.23;57.30;100951.41;5508461;32;35185;-87
2022/05/06 09:00:07;;;;;;;13.30;8.60;;;;;;;21.52;56.20;100947.19;5497524;32;34192;-90
2022/05/06 09:03:17;;;;;;;10.50;8.30;;;;;;;21.28;57.49;100945.63;5514640;32;34074;-86
2022/05/06 09:06:20;;;;;;;12.98;8.73;;;;;;;21.57;57.56;100947.62;5507092;32;32236;-86
2022/05/06 09:09:25;;;;;;;9.95;8.30;;;;;;;21.27;57.25;100939.38;5513343;32;34206;-87
2022/05/06 09:12:44;;;;;;;11.63;8.02;;;;;;;21.08;58.92;100933.84;5512115;32;34804;-86
2022/05/06 09:19:16;;;;;;;10.43;8.80;;;;;;;21.94;55.79;100938.16;5513257;32;34231;-86
2022/05/06 09:22:27;;;;;;;16.35;8.40;;;;;;;23.19;52.23;100926.84;5501943;32;32746;-85
2022/05/06 09:25:42;;;;;;;21.90;8.50;;;;;;;23.87;48.83;100938.44;5514377;32;33794;-85
2022/05/06 09:28:45;;;;;;;9.98;8.40;;;;;;;24.05;49.26;100935.81;5513651;32;34243;-85
2022/05/06 09:32:17;;;;;;;14.55;8.20;;;;;;;23.96;48.92;100933.00;5512996;32;34615;-86
2022/05/06 09:36:24;;;;;;;10.48;9.35;;;;;;;23.68;49.55;100932.97;5496017;32;33351;-87
2022/05/06 09:39:27;;;;;;;11.45;9.07;;;;;;;23.52;48.83;100936.31;5486044;32;32630;-87
2022/05/06 09:42:39;;;;;;;11.65;9.18;;;;;;;23.28;49.95;100939.50;5493896;32;34050;-86
2022/05/06 09:45:46;;;;;;;10.00;8.82;;;;;;;23.02;50.85;100938.28;5493618;32;34088;-87
2022/05/06 09:48:58;;;;;;;11.65;9.02;;;;;;;22.84;51.27;100930.03;5479831;32;34083;-85
2022/05/06 09:52:10;;;;;;;10.90;8.70;;;;;;;23.10;51.06;100923.16;5492820;32;33859;-86
2022/05/06 09:55:14;;;;;;;13.62;8.10;;;;;;;23.40;50.44;100927.53;5487413;32;32545;-86
2022/05/06 10:06:58;;;;;;;10.43;8.57;;;;;;;23.42;51.29;100921.97;5490206;32;33494;-86
2022/05/06 10:10:07;;;;;;;12.80;8.30;;;;;;;23.83;49.76;100916.22;5512727;32;35258;-86
2022/05/06 10:13:19;;;;;;;12.60;8.80;;;;;;;24.25;48.52;100916.72;5498143;32;33473;-86
2022/05/06 10:16:37;;;;;;;10.80;8.27;;;;;;;23.73;49.43;100913.56;5501009;32;32240;-86
2022/05/06 10:19:39;;;;;;;12.43;7.87;;;;;;;24.12;49.06;100915.25;5497724;32;34247;-85
2022/05/06 10:22:59;;;;;;;9.98;7.95;;;;;;;24.73;48.10;100909.22;5514785;32;33546;-84
2022/05/06 10:26:02;;;;;;;12.30;8.95;;;;;;;24.61;47.97;100901.34;5514828;32;33923;-85
2022/05/06 10:32:53;;;;;;;8.93;7.80;;;;;;;24.90;47.11;100905.66;5510436;32;33464;-86
2022/05/06 10:35:56;;;;;;;11.63;8.27;;;;;;;25.65;45.12;100902.56;5509499;32;34157;-89
2022/05/06 10:38:59;;;;;;;8.45;7.37;;;;;;;25.01;45.83;100903.69;5512567;32;34419;-86
2022/05/06 10:42:06;;;;;;;8.20;7.22;;;;;;;25.47;45.01;100908.91;5504481;32;34338;-85
2022/05/06 10:45:34;;;;;;;7.57;6.03;;;;;;;25.71;44.46;100901.91;5505597;32;33786;-86
2022/05/06 10:48:37;;;;;;;9.98;5.45;;;;;;;25.52;43.90;100890.25;5513570;32;34976;-85
2022/05/06 10:51:39;;;;;;;7.93;5.60;;;;;;;25.75;41.08;100897.00;5502927;32;33721;-87
2022/05/06 10:54:50;;;;;;;7.53;5.93;;;;;;;25.26;40.69;100893.00;5509718;32;34106;-86
2022/05/06 10:57:58;;;;;;;9.60;5.60;;;;;;;24.45;41.46;100888.47;5510285;32;34299;-87
2022/05/06 11:01:02;;;;;;;8.48;5.78;;;;;;;24.47;41.72;100883.75;5508309;32;33942;-86
2022/05/06 11:04:04;;;;;;;8.18;5.68;;;;;;;25.07;41.27;100877.78;5497575;32;33221;-86
2022/05/06 11:07:11;;;;;;;9.65;5.75;;;;;;;25.06;40.78;100879.66;5510275;32;34783;-87
2022/05/06 11:10:16;;;;;;;9.25;6.30;;;;;;;25.72;39.00;100876.44;5497595;32;32648;-87
2022/05/06 11:13:23;;;;;;;8.18;6.15;;;;;;;25.02;40.73;100870.97;5509393;32;34178;-87
2022/05/06 11:16:26;;;;;;;7.60;6.18;;;;;;;25.14;40.96;100874.28;5507428;32;34288;-87
2022/05/06 11:19:33;;;;;;;8.18;6.10;;;;;;;24.56;42.83;100870.25;5508092;32;35359;-87
2022/05/06 11:22:36;;;;;;;13.50;6.85;;;;;;;24.36;41.56;100874.00;5502136;32;32843;-85
2022/05/06 11:25:46;;;;;;;7.30;6.60;;;;;;;23.44;44.76;100868.56;5509190;32;33875;-85
2022/05/06 11:29:05;;;;;;;7.03;6.32;;;;;;;23.34;44.19;100862.31;5496116;32;32614;-85
2022/05/06 11:32:11;;;;;;;8.80;6.32;;;;;;;23.68;45.00;100872.53;5508729;32;33542;-86
2022/05/06 11:35:28;;;;;;;7.53;6.75;;;;;;;23.59;44.12;100862.62;5509540;32;34767;-85
2022/05/06 11:38:48;;;;;;;8.90;6.68;;;;;;;23.63;44.07;100853.22;5495644;32;32287;-85
2022/05/06 11:41:51;;;;;;;8.95;6.22;;;;;;;23.55;45.43;100859.38;5510882;32;33675;-87
2022/05/06 11:48:22;;;;;;;8.48;6.65;;;;;;;23.86;44.40;100845.50;5496852;32;33189;-88
2022/05/06 11:51:38;;;;;;;8.20;6.20;;;;;;;23.74;45.53;100846.72;5510028;32;34629;-87
2022/05/06 11:54:41;;;;;;;8.10;6.07;;;;;;;24.01;44.95;100851.25;5510416;32;33709;-87
2022/05/06 11:57:45;;;;;;;13.95;7.45;;;;;;;23.89;43.89;100841.66;5510643;32;34049;-86
2022/05/06 12:00:49;;;;;;;7.00;6.12;;;;;;;23.83;43.43;100843.09;5495639;32;33941;-86
2022/05/06 12:03:53;;;;;;;6.78;5.90;;;;;;;23.49;44.39;100849.97;5510388;32;34007;-86
2022/05/06 12:07:07;;;;;;;6.95;6.30;;;;;;;23.30;45.10;100850.91;5497173;32;33662;-86
2022/05/06 12:10:10;;;;;;;8.80;5.90;;;;;;;23.08;45.90;100842.12;5508173;32;33548;-86
2022/05/06 12:13:16;;;;;;;9.23;6.28;;;;;;;23.65;45.18;100840.37;5508275;32;34206;-87
2022/05/06 12:16:19;;;;;;;7.40;6.20;;;;;;;23.75;44.06;100835.75;5490564;32;33397;-86
2022/05/06 12:19:41;;;;;;;8.05;6.47;;;;;;;23.83;44.96;100834.97;5508170;32;34869;-87
2022/05/06 12:22:55;;;;;;;9.27;7.40;;;;;;;23.08;45.11;100835.88;5495733;32;32543;-86
2022/05/06 12:25:57;;;;;;;7.78;6.70;;;;;;;23.23;45.34;100837.09;5501411;32;32895;-86
2022/05/06 12:29:02;;;;;;;8.00;5.95;;;;;;;23.43;45.60;100828.91;5514918;32;33893;-87
2022/05/06 12:32:05;;;;;;;9.35;5.53;;;;;;;23.42;44.50;100830.78;5503232;32;32382;-87
2022/05/06 12:35:13;;;;;;;8.30;6.05;;;;;;;23.71;44.22;100823.50;5512777;32;34086;-87
2022/05/06 12:38:15;;;;;;;6.07;5.40;;;;;;;23.54;43.48;100830.59;5511635;32;33544;-86
2022/05/06 12:41:23;;;;;;;7.10;5.78;;;;;;;23.56;44.00;100823.16;5510203;32;34529;-88
2022/05/06 12:44:27;;;;;;;6.70;5.80;;;;;;;23.47;43.83;100821.38;5498360;32;33794;-90
2022/05/06 12:50:52;;;;;;;7.53;5.37;;;;;;;23.75;43.94;100807.81;5506316;32;33057;-89
2022/05/06 12:53:55;;;;;;;9.43;5.10;;;;;;;23.89;43.49;100814.56;5510508;32;33971;-86
2022/05/06 12:56:58;;;;;;;6.22;5.37;;;;;;;24.02;43.05;100803.31;5497096;32;33598;-85
2022/05/06 13:00:01;;;;;;;6.70;5.68;;;;;;;23.62;43.74;100800.91;5509513;32;33937;-86
2022/05/06 13:03:04;;;;;;;10.23;6.12;;;;;;;23.40;45.25;100804.88;5497590;32;33348;-86
2022/05/06 13:06:07;;;;;;;6.35;5.55;;;;;;;23.52;44.20;100794.69;5504158;32;34113;-86
2022/05/06 13:09:10;;;;;;;5.60;5.10;;;;;;;23.48;43.32;100791.44;5495182;32;32057;-85
2022/05/06 13:12:13;;;;;;;7.32;5.40;;;;;;;23.49;43.35;100795.00;5492415;32;32382;-85
2022/05/06 13:15:16;;;;;;;7.05;5.18;;;;;;;23.20;44.03;100796.81;5493555;32;34445;-85
2022/05/06 13:18:19;;;;;;;6.82;5.47;;;;;;;23.42;43.09;100801.03;5492258;32;34499;-87
2022/05/06 13:21:22;;;;;;;5.82;5.20;;;;;;;23.53;42.95;100797.25;5492837;32;34144;-86
2022/05/06 13:24:25;;;;;;;6.80;4.95;;;;;;;23.43;42.32;100793.72;5479298;32;32398;-86
2022/05/06 13:27:27;;;;;;;8.90;5.50;;;;;;;23.63;42.24;100794.47;5479106;32;32653;-86
2022/05/06 13:30:30;;;;;;;6.45;5.30;;;;;;;23.52;42.95;100792.84;5511581;32;34040;-86
2022/05/06 13:33:35;;;;;;;9.15;5.60;;;;;;;23.40;43.58;100791.34;5497139;32;32759;-85
2022/05/06 13:36:38;;;;;;;7.78;5.12;;;;;;;23.39;43.74;100779.66;5496402;32;32337;-86
2022/05/06 13:39:40;;;;;;;6.82;5.40;;;;;;;23.14;44.29;100787.44;5510464;32;33749;-86
2022/05/06 13:42:43;;;;;;;9.02;5.40;;;;;;;23.28;44.55;100780.69;5510728;32;34772;-88
2022/05/06 13:45:46;;;;;;;8.50;5.45;;;;;;;23.47;44.96;100778.06;5510052;32;33905;-89
2022/05/06 13:48:49;;;;;;;11.18;5.47;;;;;;;23.44;45.22;100775.66;5510317;32;33964;-86
2022/05/06 13:51:52;;;;;;;8.30;6.03;;;;;;;23.45;44.86;100777.34;5502275;32;32543;-85
2022/05/06 13:54:56;;;;;;;7.55;5.22;;;;;;;23.33;44.81;100771.28;5498008;32;33259;-85
2022/05/06 14:01:40;;;;;;;5.80;5.30;;;;;;;22.96;45.25;100773.84;5474602;32;34968;-85
2022/05/06 14:04:43;;;;;;;6.12;5.40;;;;;;;22.75;45.70;100763.25;5510602;32;33898;-85
2022/05/06 14:08:00;;;;;;;6.40;5.78;;;;;;;22.98;45.70;100765.59;5497579;32;32674;-89
2022/05/06 14:11:05;;;;;;;9.30;5.55;;;;;;;22.83;46.02;100766.03;5497198;32;33236;-90
2022/05/06 14:14:08;;;;;;;6.62;5.40;;;;;;;22.87;45.51;100767.47;5511338;32;33730;-91
2022/05/06 14:17:11;;;;;;;6.60;5.60;;;;;;;23.05;45.20;100764.00;5511198;32;35078;-86
2022/05/06 14:20:13;;;;;;;7.57;5.00;;;;;;;23.07;45.53;100761.97;5496849;32;33383;-87
2022/05/06 14:23:17;;;;;;;9.63;5.40;;;;;;;23.10;44.03;100764.41;5498202;32;33661;-87
2022/05/06 14:26:21;;;;;;;7.72;5.62;;;;;;;22.90;45.74;100763.63;5513239;32;35275;-87
2022/05/06 14:29:24;;;;;;;6.20;5.60;;;;;;;22.65;45.69;100763.28;5499387;32;33088;-86
2022/05/06 14:32:28;;;;;;;6.30;5.70;;;;;;;22.81;45.81;100761.78;5498650;32;33082;-87
2022/05/06 14:35:33;;;;;;;7.45;5.50;;;;;;;22.58;45.99;100760.28;5502563;32;32718;-87
2022/05/06 14:38:38;;;;;;;8.70;5.82;;;;;;;22.46;46.01;100762.28;5515580;32;34179;-87
2022/05/06 14:41:42;;;;;;;7.70;5.90;;;;;;;22.69;46.55;100762.00;5489288;32;32959;-86
2022/05/06 14:44:47;;;;;;;6.75;5.53;;;;;;;22.55;46.27;100749.78;5495741;32;35736;-87
2022/05/06 14:47:50;;;;;;;7.93;5.97;;;;;;;22.56;46.22;100753.31;5486845;32;33038;-88
2022/05/06 14:50:53;;;;;;;6.37;5.50;;;;;;;22.63;46.50;100751.75;5491032;32;33685;-87
2022/05/06 14:53:56;;;;;;;8.85;5.87;;;;;;;22.44;46.67;100742.63;5477495;32;32489;-87
2022/05/06 14:57:04;;;;;;;6.10;5.60;;;;;;;22.38;47.12;100751.31;5489830;32;33864;-87
2022/05/06 15:00:09;;;;;;;5.65;5.05;;;;;;;22.41;47.45;100761.00;5491094;32;33671;-87
2022/05/06 15:03:12;;;;;;;7.68;5.82;;;;;;;22.42;47.75;100750.03;5490713;32;33812;-87
2022/05/06 15:06:15;;;;;;;9.05;5.72;;;;;;;22.30;47.33;100748.50;5490139;32;34035;-87
2022/05/06 15:09:22;;;;;;;7.47;5.75;;;;;;;22.32;47.75;100744.66;5490587;32;35383;-87
2022/05/06 15:12:25;;;;;;;7.53;5.80;;;;;;;22.29;48.15;100750.38;5478638;32;33031;-87
2022/05/06 15:15:28;;;;;;;6.68;5.75;;;;;;;22.18;49.07;100745.94;5478489;32;33039;-87
2022/05/06 15:21:53;;;;;;;7.12;6.10;;;;;;;22.14;50.05;100740.97;5491788;32;33846;-87
2022/05/06 15:24:56;;;;;;;6.70;6.03;;;;;;;21.96;50.95;100736.28;5491794;32;34436;-87
2022/05/06 15:27:59;;;;;;;9.73;6.18;;;;;;;21.88;51.38;100734.31;5493214;32;34905;-87
2022/05/06 15:31:02;;;;;;;10.18;6.53;;;;;;;21.91;51.01;100731.34;5488064;32;32793;-88
2022/05/06 15:34:05;;;;;;;8.88;6.47;;;;;;;21.95;51.14;100731.91;5499564;32;34325;-87
2022/05/06 15:37:10;;;;;;;7.05;6.30;;;;;;;21.93;51.59;100734.72;5477747;32;33650;-87
2022/05/06 15:40:13;;;;;;;8.75;6.70;;;;;;;21.75;51.83;100731.91;5490944;32;33763;-87
2022/05/06 15:43:17;;;;;;;6.07;5.47;;;;;;;21.63;52.33;100735.69;5490076;32;32355;-87
2022/05/06 15:46:20;;;;;;;6.60;5.75;;;;;;;21.65;52.39;100722.91;5478015;32;33354;-87
2022/05/06 15:49:23;;;;;;;7.72;6.28;;;;;;;21.47;52.91;100720.03;5492405;32;33705;-87
